»·PEaware :: N298MC KTOA-KCMA

N298MC :: KTOA-KCMA

FLIGHT INFORMATION

Flight Status: Arrived
Operator: Privately registered:
United States
More flights under this callsign
Pilot: Lawrence K. (5124)
Aircraft: CESSNA 172 SKYHAWK
(C172)
More flights by this aircraft type
Origin: KTOA Zamperini
United States
Destination: KCMA Camarillo
United States
More flights between these airports :: More routes between these airports
Route: LIMBO V64 SMO125 SMO VNY
File this flight plan on PilotEdge
Remarks: Request VOR RWY 26
Altitude:
(Current/Filed)
5,000ft
Speed:
(Current/Filed)
110kts
Departed: 08-Jan-18 02:27 PM
Arrived: 08-Jan-18 03:10 PM
Distance/Time
Traveled:
45nm/0:43
Distance/Time
To Go:
Arrived

Flight Plot

Page will automatically refresh every two minutes.


Map Options




Map Legend


Flown Route
Filed Route
Departure Airport
Arrival Airport
Navaid (VOR, NDB)
Fix

Horizontal Profiles

Position Reports

Time Latitude Longitude Heading Altitude Ground
Speed
08-Jan-18 14:21 33.803513 -118.344992 22 106ft 0kts
08-Jan-18 14:22 33.803513 -118.344992 22 106ft 0kts
08-Jan-18 14:23 33.803514 -118.344992 22 106ft 0kts
08-Jan-18 14:24 33.803514 -118.344991 22 106ft 0kts
08-Jan-18 14:25 33.803514 -118.344991 22 106ft 0kts
08-Jan-18 14:26 33.803515 -118.344991 22 106ft 0kts
08-Jan-18 14:27 33.803515 -118.344991 22 106ft 0kts
08-Jan-18 14:28 33.803516 -118.344991 22 106ft 0kts
08-Jan-18 14:29 33.801293 -118.339657 130 106ft 26kts
08-Jan-18 14:30 33.798062 -118.334806 109 106ft 10kts
08-Jan-18 14:31 33.798079 -118.334595 60 106ft 0kts
08-Jan-18 14:32 33.799443 -118.333229 22 106ft 13kts
08-Jan-18 14:33 33.808915 -118.346847 310 367ft 76kts
08-Jan-18 14:34 33.822423 -118.368190 303 1144ft 79kts
08-Jan-18 14:35 33.834642 -118.390787 304 1952ft 82kts
08-Jan-18 14:36 33.848112 -118.413426 304 2700ft 84kts
08-Jan-18 14:37 33.860560 -118.437165 266 3387ft 89kts
08-Jan-18 14:38 33.838912 -118.443763 191 4028ft 91kts
08-Jan-18 14:39 33.813366 -118.446083 184 4482ft 90kts
08-Jan-18 14:40 33.787376 -118.448748 184 4265ft 94kts
08-Jan-18 14:41 33.771077 -118.462285 308 3956ft 89kts
08-Jan-18 14:42 33.791694 -118.457161 49 3989ft 86kts
08-Jan-18 14:43 33.803889 -118.431961 51 4000ft 94kts
08-Jan-18 14:44 33.817618 -118.404154 59 4135ft 100kts
08-Jan-18 14:45 33.832072 -118.373742 54 4354ft 103kts
08-Jan-18 14:46 33.846413 -118.343075 43 4236ft 105kts
08-Jan-18 14:47 33.862969 -118.317904 100 3904ft 113kts
08-Jan-18 14:48 33.886158 -118.308413 354 3611ft 101kts
08-Jan-18 14:49 33.906030 -118.331458 319 3572ft 102kts
08-Jan-18 14:50 33.924168 -118.357941 306 3779ft 102kts
08-Jan-18 14:51 33.941003 -118.385266 301 4044ft 101kts
08-Jan-18 14:52 33.961916 -118.409790 327 4101ft 107kts
08-Jan-18 14:53 33.985562 -118.432565 322 4005ft 109kts
08-Jan-18 14:54 34.008503 -118.456378 312 3927ft 109kts
08-Jan-18 14:55 34.031417 -118.480661 315 3857ft 109kts
08-Jan-18 14:56 34.051177 -118.507234 312 3987ft 106kts
08-Jan-18 14:57 34.071798 -118.535131 312 4001ft 114kts
08-Jan-18 14:58 34.092791 -118.563517 312 3993ft 109kts
08-Jan-18 14:59 34.112792 -118.589721 312 4000ft 106kts
08-Jan-18 15:00 34.132906 -118.615568 312 3999ft 104kts
08-Jan-18 15:01 34.152630 -118.641307 312 3999ft 104kts
08-Jan-18 15:02 34.169773 -118.669619 305 4000ft 104kts
08-Jan-18 15:03 34.186996 -118.697953 306 4000ft 104kts
08-Jan-18 15:04 34.204358 -118.726247 306 4000ft 105kts
08-Jan-18 15:05 34.221769 -118.754631 306 4000ft 104kts
08-Jan-18 15:06 34.239069 -118.783005 301 3916ft 108kts
08-Jan-18 15:07 34.242947 -118.820032 277 3394ft 106kts
08-Jan-18 15:08 34.243227 -118.853860 262 3401ft 100kts
08-Jan-18 15:09 34.236931 -118.889272 255 3015ft 119kts
08-Jan-18 15:10 34.231020 -118.929984 262 2323ft 121kts
08-Jan-18 15:11 34.226432 -118.967308 255 1846ft 106kts
08-Jan-18 15:12 34.217324 -119.000437 255 1277ft 103kts
08-Jan-18 15:13 34.213441 -119.033265 267 901ft 86kts
08-Jan-18 15:14 34.213412 -119.061996 271 534ft 85kts
08-Jan-18 15:15 34.213662 -119.086402 268 86ft 53kts
08-Jan-18 15:16 34.213038 -119.090615 190 78ft 0kts
08-Jan-18 15:17 34.210787 -119.090547 314 78ft 8kts
08-Jan-18 15:18 34.210910 -119.095532 145 78ft 0kts
08-Jan-18 15:19 34.210796 -119.094699 76 78ft 0kts

Navigation Log

Ident Type
1. KTOA Airport
2. LIMBO Fix
3. SMO Navaid
4. VNY Navaid
5. KCMA Airport